createdAt,value
2023-04-20T00:01:19.243Z,98627.28
2023-04-20T00:03:45.847Z,98631.75
2023-04-20T00:06:13.958Z,98603.06
2023-04-20T00:08:40.654Z,98596.31
2023-04-20T00:11:07.315Z,98624.28
2023-04-20T00:13:33.804Z,98636.44
2023-04-20T00:16:00.541Z,98606.81
2023-04-20T00:18:27.082Z,98615.84
2023-04-20T00:20:53.753Z,98626.91
2023-04-20T00:23:20.443Z,98624.28
2023-04-20T00:25:49.687Z,98608.00
2023-04-20T00:28:16.347Z,98602.00
2023-04-20T00:30:42.935Z,98610.41
2023-04-20T00:33:09.801Z,98600.41
2023-04-20T00:35:36.297Z,98614.75
2023-04-20T00:38:02.948Z,98613.91
2023-04-20T00:40:29.712Z,98592.69
2023-04-20T00:42:56.620Z,98616.66
2023-04-20T00:45:23.466Z,98601.59
2023-04-20T00:47:51.525Z,98620.28
2023-04-20T00:50:18.155Z,98611.50
2023-04-20T00:52:45.605Z,98618.59
2023-04-20T00:55:12.750Z,98602.56
2023-04-20T00:57:40.314Z,98614.28
2023-04-20T01:00:07.610Z,98620.53
2023-04-20T01:02:34.420Z,98615.31
2023-04-20T01:05:01.742Z,98618.84
2023-04-20T01:07:30.062Z,98628.56
2023-04-20T01:09:56.682Z,98624.25
2023-04-20T01:12:23.272Z,98624.25
2023-04-20T01:14:49.791Z,98624.34
2023-04-20T01:17:20.208Z,98624.47
2023-04-20T01:19:47.032Z,98621.97
2023-04-20T01:22:17.675Z,98626.28
2023-04-20T01:24:45.207Z,98625.56
2023-04-20T01:27:13.534Z,98622.09
2023-04-20T01:29:40.400Z,98622.91
2023-04-20T01:32:09.801Z,98623.03
2023-04-20T01:34:37.318Z,98605.06
2023-04-20T01:37:08.133Z,98624.81
2023-04-20T01:39:39.009Z,98611.09
2023-04-20T01:42:06.110Z,98618.81
2023-04-20T01:44:32.714Z,98620.72
2023-04-20T01:46:59.633Z,98618.91
2023-04-20T01:49:26.636Z,98621.56
2023-04-20T01:51:53.375Z,98618.22
2023-04-20T01:54:21.634Z,98604.56
2023-04-20T01:56:48.321Z,98607.72
2023-04-20T01:59:16.068Z,98613.88
2023-04-20T02:01:43.247Z,98613.88
2023-04-20T02:04:09.873Z,98608.69
2023-04-20T02:06:36.665Z,98617.47
2023-04-20T02:09:03.260Z,98614.00
2023-04-20T02:11:29.874Z,98614.94
2023-04-20T02:13:56.377Z,98617.72
2023-04-20T02:16:23.928Z,98614.22
2023-04-20T02:18:50.513Z,98605.03
2023-04-20T02:21:17.170Z,98612.50
2023-04-20T02:23:43.724Z,98597.44
2023-04-20T02:26:10.267Z,98601.78
2023-04-20T02:28:40.052Z,98608.44
2023-04-20T02:31:06.795Z,98611.19
2023-04-20T02:33:33.563Z,98610.94
2023-04-20T02:36:00.854Z,98617.19
2023-04-20T02:38:27.568Z,98615.00
2023-04-20T02:40:54.286Z,98617.31
2023-04-20T02:43:21.062Z,98606.47
2023-04-20T02:45:48.310Z,98623.56
2023-04-20T02:48:15.470Z,98627.19
2023-04-20T02:50:43.018Z,98623.69
2023-04-20T02:53:21.623Z,98621.06
2023-04-20T02:56:02.873Z,98617.56
2023-04-20T02:58:39.426Z,98607.91
2023-04-20T03:01:16.598Z,98618.63
2023-04-20T03:03:45.746Z,98622.97
2023-04-20T03:06:13.659Z,98624.78
2023-04-20T03:08:44.831Z,98555.44
2023-04-20T03:11:31.455Z,98610.81
2023-04-20T03:13:58.507Z,98613.44
2023-04-20T03:16:25.084Z,98615.38
2023-04-20T03:18:54.559Z,98620.56
2023-04-20T03:21:21.790Z,98615.47
2023-04-20T03:23:49.156Z,98627.63
2023-04-20T03:26:15.898Z,98613.56
2023-04-20T03:28:54.724Z,98618.88
2023-04-20T03:31:25.305Z,98612.00
2023-04-20T03:33:54.168Z,98611.88
2023-04-20T03:36:20.924Z,98576.88
2023-04-20T03:38:47.603Z,98619.00
2023-04-20T03:41:14.721Z,98621.63
2023-04-20T03:43:41.740Z,98630.53
2023-04-20T03:46:09.470Z,98627.88
2023-04-20T03:48:36.206Z,98624.38
2023-04-20T03:51:02.940Z,98615.00
2023-04-20T03:53:31.092Z,98610.91
2023-04-20T03:55:58.029Z,98628.00
2023-04-20T03:58:25.983Z,98630.66
2023-04-20T04:01:07.878Z,98615.44
2023-04-20T04:03:37.400Z,98635.09
2023-04-20T04:06:04.874Z,98636.03
2023-04-20T04:08:33.144Z,98637.84
2023-04-20T04:11:03.392Z,98623.81
2023-04-20T04:13:31.255Z,98642.31
2023-04-20T04:15:59.512Z,98589.97
2023-04-20T04:18:32.109Z,98631.00
2023-04-20T04:21:01.021Z,98642.53
2023-04-20T04:23:27.650Z,98643.38
2023-04-20T04:26:05.808Z,98643.38
2023-04-20T04:28:34.926Z,98640.72
2023-04-20T04:31:12.310Z,98643.38
2023-04-20T04:33:39.226Z,98646.88
2023-04-20T04:36:07.564Z,98617.91
2023-04-20T04:38:34.791Z,98643.38
2023-04-20T04:41:01.514Z,98627.53
2023-04-20T04:43:30.670Z,98644.22
2023-04-20T04:46:25.486Z,98650.47
2023-04-20T04:48:52.207Z,98653.94
2023-04-20T04:51:19.348Z,98644.88
2023-04-20T04:53:47.513Z,98653.13
2023-04-20T04:56:14.138Z,98660.84
2023-04-20T04:58:41.102Z,98666.97
2023-04-20T05:01:07.655Z,98669.50
2023-04-20T05:03:34.479Z,98670.34
2023-04-20T05:06:01.309Z,98671.19
2023-04-20T05:08:27.960Z,98667.72
2023-04-20T05:10:57.175Z,98676.50
2023-04-20T05:13:23.972Z,98676.50
2023-04-20T05:15:50.954Z,98686.13
2023-04-20T05:18:17.579Z,98684.66
2023-04-20T05:20:46.163Z,98667.56
2023-04-20T05:23:12.738Z,98691.28
2023-04-20T05:25:39.296Z,98681.56
2023-04-20T05:28:06.149Z,98693.94
2023-04-20T05:30:32.736Z,98692.25
2023-04-20T05:32:59.398Z,98680.31
2023-04-20T05:35:26.270Z,98687.81
2023-04-20T05:37:53.099Z,98689.59
2023-04-20T05:40:19.685Z,98682.25
2023-04-20T05:42:46.232Z,98694.69
2023-04-20T05:45:12.889Z,98692.88
2023-04-20T05:47:39.888Z,98700.81
2023-04-20T05:50:07.578Z,98674.28
2023-04-20T05:52:34.231Z,98703.34
2023-04-20T05:55:00.767Z,98690.47
2023-04-20T05:57:27.471Z,98689.84
2023-04-20T05:59:55.936Z,98688.91
2023-04-20T06:02:22.850Z,98691.78
2023-04-20T06:04:49.658Z,98699.72
2023-04-20T06:07:16.830Z,98681.56
2023-04-20T06:09:43.412Z,98696.47
2023-04-20T06:12:09.988Z,98703.94
2023-04-20T06:14:36.545Z,98679.38
2023-04-20T06:17:03.304Z,98706.38
2023-04-20T06:19:29.862Z,98699.19
2023-04-20T06:22:00.239Z,98702.66
2023-04-20T06:24:27.944Z,98708.69
2023-04-20T06:26:54.880Z,98705.09
2023-04-20T06:29:21.611Z,98704.97
2023-04-20T06:31:48.168Z,98709.19
2023-04-20T06:34:17.809Z,98698.59
2023-04-20T06:36:44.402Z,98689.78
2023-04-20T06:39:13.972Z,98695.72
2023-04-20T06:41:40.517Z,98695.63
2023-04-20T06:44:07.489Z,98700.06
2023-04-20T06:46:34.279Z,98701.63
2023-04-20T06:49:01.309Z,98700.78
2023-04-20T06:51:29.150Z,98693.31
2023-04-20T06:53:56.549Z,98706.81
2023-04-20T06:56:23.126Z,98704.06
2023-04-20T06:58:49.869Z,98704.88
2023-04-20T07:01:16.594Z,98700.47
2023-04-20T07:03:43.954Z,98702.97
2023-04-20T07:06:14.670Z,98697.06
2023-04-20T07:08:41.331Z,98694.53
2023-04-20T07:11:08.110Z,98693.00
2023-04-20T07:13:37.513Z,98674.53
2023-04-20T07:16:04.507Z,98689.13
2023-04-20T07:18:32.816Z,98705.16
2023-04-20T07:21:00.831Z,98685.41
2023-04-20T07:23:27.424Z,98711.06
2023-04-20T07:25:54.278Z,98703.13
2023-04-20T07:28:21.038Z,98706.00
2023-04-20T07:30:47.652Z,98716.13
2023-04-20T07:33:14.512Z,98713.38
2023-04-20T07:35:41.120Z,98719.38
2023-04-20T07:38:07.699Z,98713.13
2023-04-20T07:40:34.215Z,98707.72
2023-04-20T07:43:00.920Z,98719.19
2023-04-20T07:45:27.592Z,98711.97
2023-04-20T07:47:55.394Z,98718.94
2023-04-20T07:50:22.202Z,98717.13
2023-04-20T07:52:48.898Z,98707.00
2023-04-20T07:55:17.231Z,98711.84
2023-04-20T07:57:46.662Z,98719.47
2023-04-20T08:00:14.819Z,98699.88
2023-04-20T08:02:41.851Z,98716.72
2023-04-20T08:05:10.365Z,98725.50
2023-04-20T08:07:37.592Z,98714.88
2023-04-20T08:10:05.650Z,98721.06
2023-04-20T08:12:32.453Z,98719.22
2023-04-20T08:15:01.772Z,98715.97
2023-04-20T08:17:28.424Z,98726.22
2023-04-20T08:19:55.100Z,98717.31
2023-04-20T08:22:21.782Z,98706.66
2023-04-20T08:24:48.386Z,98732.25
2023-04-20T08:27:14.964Z,98727.19
2023-04-20T08:29:41.757Z,98713.53
2023-04-20T08:34:27.129Z,98728.63
2023-04-20T08:36:55.886Z,98734.78
2023-04-20T08:39:24.050Z,98722.38
2023-04-20T08:41:55.496Z,98721.53
2023-04-20T08:44:22.636Z,98731.88
2023-04-20T08:46:50.204Z,98723.94
2023-04-20T08:49:19.028Z,98725.16
2023-04-20T08:51:46.998Z,98735.41
2023-04-20T08:54:14.367Z,98700.75
2023-04-20T08:56:47.106Z,98739.75
2023-04-20T09:01:36.339Z,98722.63
2023-04-20T09:04:15.046Z,98685.19
2023-04-20T09:06:53.913Z,98727.09
2023-04-20T09:09:22.519Z,98724.19
2023-04-20T09:12:04.066Z,98729.75
2023-04-20T09:14:41.873Z,98738.53
2023-04-20T09:17:08.432Z,98726.97
2023-04-20T09:19:37.756Z,98729.16
2023-04-20T09:22:06.537Z,98711.28
2023-04-20T09:24:35.596Z,98741.94
2023-04-20T09:27:14.368Z,98731.78
2023-04-20T09:29:41.086Z,98747.31
2023-04-20T09:32:07.750Z,98745.75
2023-04-20T09:34:45.039Z,98726.97
2023-04-20T09:37:15.053Z,98744.91
2023-04-20T09:39:43.658Z,98743.84
2023-04-20T09:42:14.845Z,98738.06
2023-04-20T09:44:41.975Z,98740.56
2023-04-20T09:47:08.995Z,98739.50
2023-04-20T09:49:41.097Z,98742.16
2023-04-20T09:52:08.163Z,98739.50
2023-04-20T09:54:37.248Z,98741.19
2023-04-20T09:57:05.905Z,98736.00
2023-04-20T09:59:33.617Z,98744.78
2023-04-20T10:02:00.505Z,98739.50
2023-04-20T10:04:27.451Z,98711.53
2023-04-20T10:06:57.108Z,98741.31
2023-04-20T10:09:28.148Z,98733.25
2023-04-20T10:12:09.169Z,98738.53
2023-04-20T10:14:35.986Z,98730.59
2023-04-20T10:17:08.710Z,98717.06
2023-04-20T10:19:42.538Z,98726.84
2023-04-20T10:22:10.945Z,98726.13
2023-04-20T10:24:38.441Z,98716.97
2023-04-20T10:27:19.790Z,98722.03
2023-04-20T10:29:46.526Z,98731.53
2023-04-20T10:32:42.394Z,98725.63
2023-04-20T10:35:11.173Z,98728.06
2023-04-20T10:37:48.668Z,98728.28
2023-04-20T10:40:15.448Z,98729.84
2023-04-20T10:42:48.721Z,98726.84
2023-04-20T10:45:15.470Z,98728.28
2023-04-20T10:47:42.343Z,98731.66
2023-04-20T10:50:19.016Z,98729.97
2023-04-20T10:52:45.718Z,98731.28
2023-04-20T10:55:26.336Z,98730.09
2023-04-20T10:57:53.837Z,98710.75
2023-04-20T11:00:26.091Z,98733.72
2023-04-20T11:02:56.741Z,98728.41
2023-04-20T11:05:25.806Z,98723.22
2023-04-20T11:07:56.844Z,98714.41
2023-04-20T11:10:36.708Z,98720.59
2023-04-20T11:13:03.455Z,98689.78
2023-04-20T11:15:34.092Z,98713.34
2023-04-20T11:18:11.960Z,98712.38
2023-04-20T11:20:53.163Z,98709.72
2023-04-20T11:23:24.444Z,98713.13
2023-04-20T11:25:56.118Z,98719.25
2023-04-20T11:28:23.685Z,98683.16
2023-04-20T11:30:50.985Z,98707.22
2023-04-20T11:33:28.669Z,98718.16
2023-04-20T11:35:57.380Z,98698.91
2023-04-20T11:38:31.660Z,98718.91
2023-04-20T11:41:05.428Z,98718.91
2023-04-20T11:43:32.456Z,98714.56
2023-04-20T11:46:01.049Z,98719.63
2023-04-20T11:48:31.193Z,98719.63
2023-04-20T11:50:58.664Z,98715.16
2023-04-20T11:53:25.374Z,98686.84
2023-04-20T11:55:52.091Z,98705.44
2023-04-20T11:58:18.577Z,98708.91
2023-04-20T12:00:45.255Z,98690.97
2023-04-20T12:03:11.885Z,98705.31
2023-04-20T12:05:38.711Z,98703.47
2023-04-20T12:08:08.313Z,98704.44
2023-04-20T12:10:35.252Z,98686.63
2023-04-20T12:13:01.784Z,98689.41
2023-04-20T12:15:28.371Z,98679.50
2023-04-20T12:17:55.378Z,98696.50
2023-04-20T12:20:22.036Z,98707.00
2023-04-20T12:22:48.636Z,98700.84
2023-04-20T12:25:15.255Z,98682.06
2023-04-20T12:27:41.823Z,98690.34
2023-04-20T12:30:09.305Z,98692.88
2023-04-20T12:32:35.943Z,98694.56
2023-04-20T12:35:02.797Z,98690.22
2023-04-20T12:37:29.342Z,98691.94
2023-04-20T12:39:56.018Z,98698.91
2023-04-20T12:42:22.545Z,98689.53
2023-04-20T12:44:49.103Z,98689.16
2023-04-20T12:47:15.776Z,98678.53
2023-04-20T12:49:42.383Z,98693.63
2023-04-20T12:52:09.070Z,98687.34
2023-04-20T12:54:35.660Z,98682.06
2023-04-20T12:57:03.399Z,98688.19
2023-04-20T12:59:30.091Z,98683.75
2023-04-20T13:01:56.683Z,98677.72
2023-04-20T13:04:24.113Z,98681.09
2023-04-20T13:06:51.564Z,98688.19
2023-04-20T13:09:18.240Z,98674.31
2023-04-20T13:11:47.081Z,98674.09
2023-04-20T13:14:13.629Z,98680.22
2023-04-20T13:16:40.395Z,98682.88
2023-04-20T13:19:07.885Z,98666.28
2023-04-20T13:21:37.611Z,98667.09
2023-04-20T13:24:04.290Z,98673.00
2023-04-20T13:26:35.776Z,98659.88
2023-04-20T13:29:03.064Z,98669.50
2023-04-20T13:31:31.163Z,98665.19
2023-04-20T13:33:57.797Z,98661.56
2023-04-20T13:36:28.113Z,98653.38
2023-04-20T13:38:55.820Z,98647.34
2023-04-20T13:41:23.732Z,98651.56
2023-04-20T13:43:50.695Z,98651.81
2023-04-20T13:46:18.145Z,98662.41
2023-04-20T13:48:44.823Z,98659.75
2023-04-20T13:51:11.434Z,98657.13
2023-04-20T13:53:38.033Z,98661.56
2023-04-20T13:56:07.751Z,98657.94
2023-04-20T13:58:37.209Z,98655.28
2023-04-20T14:01:14.766Z,98660.59
2023-04-20T14:03:42.512Z,98622.53
2023-04-20T14:06:09.365Z,98630.09
2023-04-20T14:08:36.294Z,98652.63
2023-04-20T14:11:02.985Z,98652.63
2023-04-20T14:13:29.725Z,98657.13
2023-04-20T14:15:57.155Z,98660.59
2023-04-20T14:18:23.873Z,98656.16
2023-04-20T14:20:52.317Z,98662.16
2023-04-20T14:23:19.699Z,98667.47
2023-04-20T14:25:46.283Z,98654.47
2023-04-20T14:28:15.087Z,98657.94
2023-04-20T14:30:41.625Z,98653.50
2023-04-20T14:33:08.298Z,98650.84
2023-04-20T14:35:34.924Z,98652.63
2023-04-20T14:38:01.569Z,98661.44
2023-04-20T14:40:28.179Z,98641.56
2023-04-20T14:42:54.869Z,98647.72
2023-04-20T14:45:21.459Z,98650.00
2023-04-20T14:47:52.546Z,98653.38
2023-04-20T14:50:19.187Z,98644.81
2023-04-20T14:52:45.947Z,98660.38
2023-04-20T14:55:12.565Z,98633.34
2023-04-20T14:57:39.086Z,98645.91
2023-04-20T15:00:06.663Z,98627.56
2023-04-20T15:02:33.526Z,98653.50
2023-04-20T15:05:01.014Z,98658.81
2023-04-20T15:07:28.473Z,98658.69
2023-04-20T15:12:22.157Z,98661.44
2023-04-20T15:19:46.080Z,98640.81
2023-04-20T15:22:13.612Z,98651.34
2023-04-20T15:24:40.612Z,98658.81
2023-04-20T15:27:07.720Z,98660.59
2023-04-20T15:29:37.526Z,98661.31
2023-04-20T15:32:04.971Z,98646.84
2023-04-20T15:34:31.559Z,98663.25
2023-04-20T15:36:58.189Z,98663.97
2023-04-20T15:39:24.863Z,98633.47
2023-04-20T15:41:52.026Z,98649.75
2023-04-20T15:44:18.754Z,98653.50
2023-04-20T15:46:45.480Z,98646.63
2023-04-20T15:49:12.099Z,98625.06
2023-04-20T15:54:06.801Z,98654.47
2023-04-20T15:56:33.404Z,98638.56
2023-04-20T15:59:02.779Z,98643.13
2023-04-20T16:01:29.422Z,98646.50
2023-04-20T16:03:56.323Z,98641.34
2023-04-20T16:06:24.145Z,98642.16
2023-04-20T16:08:53.811Z,98630.47
2023-04-20T16:11:21.825Z,98629.88
2023-04-20T16:13:48.747Z,98644.22
2023-04-20T16:16:16.163Z,98643.25
2023-04-20T16:18:42.717Z,98648.56
2023-04-20T16:21:09.441Z,98644.22
2023-04-20T16:23:36.098Z,98648.69
2023-04-20T16:26:02.935Z,98641.91
2023-04-20T16:28:29.991Z,98640.00
2023-04-20T16:30:56.896Z,98637.69
2023-04-20T16:33:23.926Z,98619.41
2023-04-20T16:35:51.169Z,98643.84
2023-04-20T16:38:19.158Z,98606.09
2023-04-20T16:40:46.755Z,98643.72
2023-04-20T16:43:13.328Z,98642.03
2023-04-20T16:45:40.350Z,98645.66
2023-04-20T16:48:08.124Z,98630.47
2023-04-20T16:50:40.202Z,98644.09
2023-04-20T16:53:08.900Z,98638.53
2023-04-20T16:55:35.570Z,98647.81
2023-04-20T16:58:02.214Z,98639.88
2023-04-20T17:00:32.867Z,98644.34
2023-04-20T17:03:01.298Z,98609.22
2023-04-20T17:05:28.185Z,98619.94
2023-04-20T17:07:57.850Z,98630.22
2023-04-20T17:10:25.188Z,98642.03
2023-04-20T17:12:51.892Z,98645.66
2023-04-20T17:15:18.477Z,98630.53
2023-04-20T17:17:45.312Z,98637.81
2023-04-20T17:20:12.271Z,98633.91
2023-04-20T17:22:38.982Z,98641.88
2023-04-20T17:25:07.950Z,98654.81
2023-04-20T17:27:34.721Z,98649.59
2023-04-20T17:30:01.960Z,98638.84
2023-04-20T17:32:28.792Z,98641.47
2023-04-20T17:34:55.527Z,98654.25
2023-04-20T17:37:22.933Z,98649.81
2023-04-20T17:39:49.476Z,98648.97
2023-04-20T17:42:17.567Z,98651.72
2023-04-20T17:44:44.106Z,98652.69
2023-04-20T17:47:14.705Z,98651.03
2023-04-20T17:49:41.374Z,98647.88
2023-04-20T17:52:15.321Z,98648.38
2023-04-20T17:54:44.525Z,98649.56
2023-04-20T17:57:11.584Z,98650.75
2023-04-20T17:59:38.218Z,98653.06
2023-04-20T18:02:05.151Z,98655.72
2023-04-20T18:04:31.999Z,98621.56
2023-04-20T18:06:58.602Z,98653.28
2023-04-20T18:09:27.873Z,98658.72
2023-04-20T18:11:54.402Z,98652.56
2023-04-20T18:14:21.240Z,98651.72
2023-04-20T18:16:52.541Z,98645.69
2023-04-20T18:19:19.212Z,98650.28
2023-04-20T18:21:46.095Z,98652.06
2023-04-20T18:24:12.785Z,98656.41
2023-04-20T18:26:39.382Z,98653.88
2023-04-20T18:29:06.781Z,98657.50
2023-04-20T18:31:33.629Z,98644.84
2023-04-20T18:34:00.461Z,98646.63
2023-04-20T18:36:27.026Z,98655.91
2023-04-20T18:38:54.497Z,98649.19
2023-04-20T18:41:23.177Z,98631.31
2023-04-20T18:43:53.692Z,98658.78
2023-04-20T18:46:20.330Z,98657.00
2023-04-20T18:48:47.453Z,98658.09
2023-04-20T18:51:14.144Z,98652.88
2023-04-20T18:53:40.754Z,98659.03
2023-04-20T18:56:10.812Z,98661.69
2023-04-20T18:58:37.366Z,98663.47
2023-04-20T19:01:04.398Z,98657.69
2023-04-20T19:03:31.978Z,98666.25
2023-04-20T19:05:59.228Z,98662.75
2023-04-20T19:08:25.892Z,98636.34
2023-04-20T19:10:56.380Z,98653.59
2023-04-20T19:13:23.611Z,98668.88
2023-04-20T19:15:57.699Z,98661.91
2023-04-20T19:18:28.750Z,98658.41
2023-04-20T19:20:55.523Z,98659.38
2023-04-20T19:23:22.135Z,98660.19
2023-04-20T19:25:51.556Z,98656.72
2023-04-20T19:28:24.307Z,98662.03
2023-04-20T19:30:53.250Z,98655.16
2023-04-20T19:33:20.800Z,98647.94
2023-04-20T19:35:53.528Z,98653.34
2023-04-20T19:38:24.352Z,98644.56
2023-04-20T19:40:51.244Z,98652.38
2023-04-20T19:43:17.854Z,98655.03
2023-04-20T19:45:44.518Z,98651.56
2023-04-20T19:48:11.447Z,98649.75
2023-04-20T19:50:38.170Z,98649.97
2023-04-20T19:53:05.068Z,98660.44
2023-04-20T19:55:31.710Z,98653.34
2023-04-20T19:57:58.324Z,98639.94
2023-04-20T20:00:25.231Z,98655.16
2023-04-20T20:02:51.951Z,98646.84
2023-04-20T20:05:18.964Z,98658.75
2023-04-20T20:07:45.630Z,98650.94
2023-04-20T20:10:12.293Z,98657.19
2023-04-20T20:12:38.901Z,98652.84
2023-04-20T20:15:05.806Z,98649.38
2023-04-20T20:17:32.469Z,98652.84
2023-04-20T20:20:00.246Z,98644.19
2023-04-20T20:22:29.547Z,98647.69
2023-04-20T20:24:57.254Z,98649.38
2023-04-20T20:27:23.847Z,98646.72
2023-04-20T20:29:50.494Z,98647.56
2023-04-20T20:32:17.230Z,98644.06
2023-04-20T20:34:43.981Z,98626.56
2023-04-20T20:37:10.651Z,98584.13
2023-04-20T20:39:37.570Z,98641.44
2023-04-20T20:42:05.386Z,98646.72
2023-04-20T20:44:33.063Z,98647.69
2023-04-20T20:47:02.454Z,98635.03
2023-04-20T20:49:29.095Z,98641.16
2023-04-20T20:51:58.738Z,98641.03
2023-04-20T20:54:25.460Z,98649.59
2023-04-20T20:56:51.979Z,98632.72
2023-04-20T20:59:18.803Z,98647.91
2023-04-20T21:01:45.616Z,98646.22
2023-04-20T21:04:12.392Z,98646.44
2023-04-20T21:06:39.039Z,98648.88
2023-04-20T21:09:06.021Z,98651.63
2023-04-20T21:11:32.620Z,98634.50
2023-04-20T21:14:01.756Z,98646.56
2023-04-20T21:16:28.770Z,98653.56
2023-04-20T21:18:58.256Z,98640.41
2023-04-20T21:21:24.763Z,98626.44
2023-04-20T21:23:51.410Z,98644.88
2023-04-20T21:26:18.076Z,98644.88
2023-04-20T21:28:44.687Z,98645.84
2023-04-20T21:31:11.250Z,98650.28
2023-04-20T21:33:38.112Z,98641.00
2023-04-20T21:36:04.961Z,98653.91
2023-04-20T21:38:31.520Z,98659.19
2023-04-20T21:40:58.153Z,98634.59
2023-04-20T21:43:24.704Z,98637.72
2023-04-20T21:45:51.774Z,98638.22
2023-04-20T21:48:18.604Z,98628.47
2023-04-20T21:50:45.254Z,98630.50
2023-04-20T21:53:11.881Z,98650.63
2023-04-20T21:55:38.456Z,98654.09
2023-04-20T21:58:05.056Z,98652.44
2023-04-20T22:00:31.680Z,98644.97
2023-04-20T22:02:58.522Z,98656.88
2023-04-20T22:05:26.095Z,98623.94
2023-04-20T22:07:53.183Z,98649.06
2023-04-20T22:10:20.330Z,98631.44
2023-04-20T22:12:46.966Z,98634.22
2023-04-20T22:15:14.753Z,98651.84
2023-04-20T22:17:42.088Z,98653.63
2023-04-20T22:20:10.460Z,98635.78
2023-04-20T22:22:37.964Z,98650.13
2023-04-20T22:25:05.802Z,98651.94
2023-04-20T22:27:33.686Z,98643.16
2023-04-20T22:30:00.612Z,98634.09
2023-04-20T22:32:27.762Z,98637.44
2023-04-20T22:34:54.376Z,98645.06
2023-04-20T22:37:21.064Z,98629.34
2023-04-20T22:39:47.647Z,98646.00
2023-04-20T22:42:14.261Z,98646.88
2023-04-20T22:44:40.823Z,98659.25
2023-04-20T22:47:07.618Z,98637.88
2023-04-20T22:49:34.921Z,98658.41
2023-04-20T22:52:01.728Z,98645.63
2023-04-20T22:54:28.309Z,98653.25
2023-04-20T22:56:58.698Z,98620.56
2023-04-20T22:59:25.465Z,98641.69
2023-04-20T23:01:52.119Z,98640.34
2023-04-20T23:04:18.846Z,98636.88
2023-04-20T23:06:45.484Z,98648.91
2023-04-20T23:09:13.259Z,98637.81
2023-04-20T23:11:40.295Z,98655.97
2023-04-20T23:14:08.122Z,98647.22
2023-04-20T23:16:35.358Z,98650.81
2023-04-20T23:19:02.037Z,98655.41
2023-04-20T23:21:28.891Z,98650.09
2023-04-20T23:23:57.687Z,98618.06
2023-04-20T23:26:24.370Z,98645.63
2023-04-20T23:28:54.115Z,98639.56
2023-04-20T23:31:21.124Z,98630.50
2023-04-20T23:33:48.333Z,98641.38
2023-04-20T23:36:15.051Z,98647.44
2023-04-20T23:38:42.264Z,98645.75
2023-04-20T23:41:12.134Z,98644.88
2023-04-20T23:43:39.047Z,98639.81
2023-04-20T23:46:06.416Z,98645.81
2023-04-20T23:48:33.472Z,98640.66
2023-04-20T23:51:00.993Z,98642.47
2023-04-20T23:53:27.806Z,98639.41
2023-04-20T23:55:57.335Z,98641.59
2023-04-20T23:58:25.217Z,98645.22
